sensor_id;sensor_type;location;lat;lon;timestamp;P1;durP1;ratioP1;P2;durP2;ratioP2
4307;SDS011;2167;53.448;9.984;2023-05-10T00:00:24;5.13;;;2.10;;
4307;SDS011;2167;53.448;9.984;2023-05-10T00:02:50;4.00;;;2.67;;
4307;SDS011;2167;53.448;9.984;2023-05-10T00:05:16;4.67;;;2.93;;
4307;SDS011;2167;53.448;9.984;2023-05-10T00:07:42;3.20;;;2.90;;
4307;SDS011;2167;53.448;9.984;2023-05-10T00:10:09;3.07;;;2.47;;
4307;SDS011;2167;53.448;9.984;2023-05-10T00:12:35;5.83;;;2.70;;
4307;SDS011;2167;53.448;9.984;2023-05-10T00:15:01;6.47;;;2.80;;
4307;SDS011;2167;53.448;9.984;2023-05-10T00:17:27;3.20;;;2.20;;
4307;SDS011;2167;53.448;9.984;2023-05-10T00:19:53;5.53;;;3.37;;
4307;SDS011;2167;53.448;9.984;2023-05-10T00:22:19;2.53;;;2.20;;
4307;SDS011;2167;53.448;9.984;2023-05-10T00:24:45;3.80;;;2.87;;
4307;SDS011;2167;53.448;9.984;2023-05-10T00:27:11;3.20;;;2.90;;
4307;SDS011;2167;53.448;9.984;2023-05-10T00:29:36;3.13;;;2.37;;
4307;SDS011;2167;53.448;9.984;2023-05-10T00:32:02;3.30;;;3.00;;
4307;SDS011;2167;53.448;9.984;2023-05-10T00:34:27;3.23;;;2.23;;
4307;SDS011;2167;53.448;9.984;2023-05-10T00:36:53;3.30;;;2.20;;
4307;SDS011;2167;53.448;9.984;2023-05-10T00:39:20;2.20;;;2.00;;
4307;SDS011;2167;53.448;9.984;2023-05-10T00:41:46;4.37;;;2.87;;
4307;SDS011;2167;53.448;9.984;2023-05-10T00:44:11;6.00;;;3.03;;
4307;SDS011;2167;53.448;9.984;2023-05-10T00:46:37;3.67;;;2.93;;
4307;SDS011;2167;53.448;9.984;2023-05-10T00:49:03;3.77;;;2.93;;
4307;SDS011;2167;53.448;9.984;2023-05-10T00:51:29;3.70;;;3.40;;
4307;SDS011;2167;53.448;9.984;2023-05-10T00:53:56;6.63;;;3.27;;
4307;SDS011;2167;53.448;9.984;2023-05-10T00:56:21;2.87;;;2.57;;
4307;SDS011;2167;53.448;9.984;2023-05-10T00:58:49;3.50;;;2.37;;
4307;SDS011;2167;53.448;9.984;2023-05-10T01:01:15;5.17;;;2.57;;
4307;SDS011;2167;53.448;9.984;2023-05-10T01:03:41;5.10;;;2.40;;
4307;SDS011;2167;53.448;9.984;2023-05-10T01:06:07;3.30;;;2.77;;
4307;SDS011;2167;53.448;9.984;2023-05-10T01:08:34;4.73;;;2.70;;
4307;SDS011;2167;53.448;9.984;2023-05-10T01:11:00;3.63;;;3.30;;
4307;SDS011;2167;53.448;9.984;2023-05-10T01:13:34;7.03;;;2.50;;
4307;SDS011;2167;53.448;9.984;2023-05-10T01:16:02;4.33;;;2.87;;
4307;SDS011;2167;53.448;9.984;2023-05-10T01:18:29;4.07;;;2.90;;
4307;SDS011;2167;53.448;9.984;2023-05-10T01:21:04;4.80;;;2.87;;
4307;SDS011;2167;53.448;9.984;2023-05-10T01:38:02;4.00;;;3.70;;
4307;SDS011;2167;53.448;9.984;2023-05-10T01:40:42;3.70;;;3.30;;
4307;SDS011;2167;53.448;9.984;2023-05-10T01:43:22;5.17;;;3.03;;
4307;SDS011;2167;53.448;9.984;2023-05-10T01:46:02;7.27;;;3.30;;
4307;SDS011;2167;53.448;9.984;2023-05-10T01:48:57;4.73;;;3.60;;
4307;SDS011;2167;53.448;9.984;2023-05-10T01:51:26;5.67;;;3.40;;
4307;SDS011;2167;53.448;9.984;2023-05-10T01:54:00;4.70;;;3.20;;
4307;SDS011;2167;53.448;9.984;2023-05-10T01:56:28;5.77;;;3.60;;
4307;SDS011;2167;53.448;9.984;2023-05-10T01:58:56;4.97;;;3.70;;
4307;SDS011;2167;53.448;9.984;2023-05-10T02:01:25;3.30;;;2.93;;
4307;SDS011;2167;53.448;9.984;2023-05-10T02:03:52;3.60;;;3.30;;
4307;SDS011;2167;53.448;9.984;2023-05-10T02:06:19;2.93;;;2.60;;
4307;SDS011;2167;53.448;9.984;2023-05-10T02:08:47;3.13;;;2.60;;
4307;SDS011;2167;53.448;9.984;2023-05-10T02:11:15;5.70;;;3.40;;
4307;SDS011;2167;53.448;9.984;2023-05-10T02:13:43;7.43;;;3.20;;
4307;SDS011;2167;53.448;9.984;2023-05-10T02:16:12;3.37;;;3.07;;
4307;SDS011;2167;53.448;9.984;2023-05-10T02:18:38;3.17;;;2.80;;
4307;SDS011;2167;53.448;9.984;2023-05-10T02:21:06;5.37;;;2.90;;
4307;SDS011;2167;53.448;9.984;2023-05-10T02:23:34;3.80;;;3.20;;
4307;SDS011;2167;53.448;9.984;2023-05-10T02:26:01;2.53;;;2.33;;
4307;SDS011;2167;53.448;9.984;2023-05-10T02:28:28;3.70;;;3.13;;
4307;SDS011;2167;53.448;9.984;2023-05-10T02:30:54;3.77;;;3.47;;
4307;SDS011;2167;53.448;9.984;2023-05-10T02:33:21;4.00;;;3.20;;
4307;SDS011;2167;53.448;9.984;2023-05-10T02:35:47;6.63;;;4.17;;
4307;SDS011;2167;53.448;9.984;2023-05-10T02:38:14;4.23;;;3.50;;
4307;SDS011;2167;53.448;9.984;2023-05-10T02:40:41;3.93;;;3.50;;
4307;SDS011;2167;53.448;9.984;2023-05-10T02:43:09;6.50;;;4.37;;
4307;SDS011;2167;53.448;9.984;2023-05-10T02:45:37;5.10;;;3.43;;
4307;SDS011;2167;53.448;9.984;2023-05-10T02:48:04;3.63;;;3.13;;
4307;SDS011;2167;53.448;9.984;2023-05-10T02:50:31;4.20;;;3.20;;
4307;SDS011;2167;53.448;9.984;2023-05-10T02:53:06;6.27;;;3.90;;
4307;SDS011;2167;53.448;9.984;2023-05-10T02:55:37;5.13;;;3.53;;
4307;SDS011;2167;53.448;9.984;2023-05-10T02:58:05;5.73;;;4.03;;
4307;SDS011;2167;53.448;9.984;2023-05-10T03:00:32;4.20;;;3.80;;
4307;SDS011;2167;53.448;9.984;2023-05-10T03:02:57;4.83;;;3.97;;
4307;SDS011;2167;53.448;9.984;2023-05-10T03:05:23;5.30;;;3.17;;
4307;SDS011;2167;53.448;9.984;2023-05-10T03:07:49;4.70;;;4.00;;
4307;SDS011;2167;53.448;9.984;2023-05-10T03:10:16;7.67;;;3.97;;
4307;SDS011;2167;53.448;9.984;2023-05-10T03:18:13;5.97;;;3.67;;
4307;SDS011;2167;53.448;9.984;2023-05-10T03:20:54;4.47;;;3.20;;
4307;SDS011;2167;53.448;9.984;2023-05-10T03:23:27;5.17;;;3.77;;
4307;SDS011;2167;53.448;9.984;2023-05-10T03:25:59;8.70;;;4.10;;
4307;SDS011;2167;53.448;9.984;2023-05-10T03:28:25;5.37;;;4.67;;
4307;SDS011;2167;53.448;9.984;2023-05-10T03:30:52;4.70;;;4.20;;
4307;SDS011;2167;53.448;9.984;2023-05-10T03:33:21;4.90;;;3.30;;
4307;SDS011;2167;53.448;9.984;2023-05-10T03:35:47;3.90;;;3.50;;
4307;SDS011;2167;53.448;9.984;2023-05-10T03:38:13;4.50;;;3.93;;
4307;SDS011;2167;53.448;9.984;2023-05-10T03:40:39;5.17;;;3.50;;
4307;SDS011;2167;53.448;9.984;2023-05-10T03:43:04;5.00;;;3.53;;
4307;SDS011;2167;53.448;9.984;2023-05-10T03:45:30;4.07;;;3.03;;
4307;SDS011;2167;53.448;9.984;2023-05-10T03:47:56;5.33;;;3.73;;
4307;SDS011;2167;53.448;9.984;2023-05-10T03:50:23;4.20;;;3.80;;
4307;SDS011;2167;53.448;9.984;2023-05-10T03:52:48;4.17;;;3.77;;
4307;SDS011;2167;53.448;9.984;2023-05-10T03:55:14;6.23;;;3.50;;
4307;SDS011;2167;53.448;9.984;2023-05-10T03:57:41;3.50;;;3.20;;
4307;SDS011;2167;53.448;9.984;2023-05-10T04:00:06;7.03;;;3.47;;
4307;SDS011;2167;53.448;9.984;2023-05-10T04:02:33;5.87;;;3.30;;
4307;SDS011;2167;53.448;9.984;2023-05-10T04:04:58;5.90;;;4.27;;
4307;SDS011;2167;53.448;9.984;2023-05-10T04:07:24;6.70;;;3.83;;
4307;SDS011;2167;53.448;9.984;2023-05-10T04:09:49;5.70;;;3.37;;
4307;SDS011;2167;53.448;9.984;2023-05-10T04:12:15;5.93;;;4.40;;
4307;SDS011;2167;53.448;9.984;2023-05-10T04:14:40;5.60;;;3.50;;
4307;SDS011;2167;53.448;9.984;2023-05-10T04:17:06;5.60;;;4.40;;
4307;SDS011;2167;53.448;9.984;2023-05-10T04:19:32;5.13;;;3.70;;
4307;SDS011;2167;53.448;9.984;2023-05-10T04:21:58;4.03;;;3.50;;
4307;SDS011;2167;53.448;9.984;2023-05-10T04:24:24;4.83;;;3.97;;
4307;SDS011;2167;53.448;9.984;2023-05-10T04:26:49;6.10;;;3.20;;
4307;SDS011;2167;53.448;9.984;2023-05-10T04:29:15;7.63;;;3.40;;
4307;SDS011;2167;53.448;9.984;2023-05-10T04:31:41;3.73;;;3.37;;
4307;SDS011;2167;53.448;9.984;2023-05-10T04:34:06;6.53;;;3.97;;
4307;SDS011;2167;53.448;9.984;2023-05-10T04:36:32;5.17;;;3.93;;
4307;SDS011;2167;53.448;9.984;2023-05-10T04:39:00;4.97;;;3.33;;
4307;SDS011;2167;53.448;9.984;2023-05-10T04:41:25;3.73;;;3.30;;
4307;SDS011;2167;53.448;9.984;2023-05-10T04:43:51;4.07;;;3.43;;
4307;SDS011;2167;53.448;9.984;2023-05-10T04:46:17;4.67;;;3.53;;
4307;SDS011;2167;53.448;9.984;2023-05-10T04:48:42;10.47;;;3.20;;
4307;SDS011;2167;53.448;9.984;2023-05-10T04:51:08;5.27;;;3.00;;
4307;SDS011;2167;53.448;9.984;2023-05-10T04:53:33;5.00;;;4.00;;
4307;SDS011;2167;53.448;9.984;2023-05-10T04:55:59;4.17;;;3.63;;
4307;SDS011;2167;53.448;9.984;2023-05-10T04:58:24;3.27;;;2.97;;
4307;SDS011;2167;53.448;9.984;2023-05-10T05:00:53;5.33;;;3.10;;
4307;SDS011;2167;53.448;9.984;2023-05-10T05:03:21;4.10;;;3.07;;
4307;SDS011;2167;53.448;9.984;2023-05-10T05:05:47;2.93;;;2.73;;
4307;SDS011;2167;53.448;9.984;2023-05-10T05:08:13;6.17;;;4.47;;
4307;SDS011;2167;53.448;9.984;2023-05-10T05:10:39;3.97;;;3.57;;
4307;SDS011;2167;53.448;9.984;2023-05-10T05:13:04;3.57;;;3.00;;
4307;SDS011;2167;53.448;9.984;2023-05-10T05:15:30;3.67;;;3.20;;
4307;SDS011;2167;53.448;9.984;2023-05-10T05:17:56;3.17;;;2.87;;
4307;SDS011;2167;53.448;9.984;2023-05-10T05:20:21;6.87;;;3.40;;
4307;SDS011;2167;53.448;9.984;2023-05-10T05:22:48;4.37;;;3.17;;
4307;SDS011;2167;53.448;9.984;2023-05-10T05:25:13;8.30;;;4.17;;
4307;SDS011;2167;53.448;9.984;2023-05-10T05:27:40;6.00;;;3.33;;
4307;SDS011;2167;53.448;9.984;2023-05-10T05:30:05;6.10;;;3.40;;
4307;SDS011;2167;53.448;9.984;2023-05-10T05:32:31;6.20;;;3.57;;
4307;SDS011;2167;53.448;9.984;2023-05-10T05:34:58;5.50;;;3.87;;
4307;SDS011;2167;53.448;9.984;2023-05-10T05:37:23;5.60;;;3.07;;
4307;SDS011;2167;53.448;9.984;2023-05-10T05:39:49;7.00;;;3.20;;
4307;SDS011;2167;53.448;9.984;2023-05-10T05:42:15;3.87;;;3.37;;
4307;SDS011;2167;53.448;9.984;2023-05-10T05:44:43;4.90;;;3.70;;
4307;SDS011;2167;53.448;9.984;2023-05-10T05:47:09;6.17;;;4.07;;
4307;SDS011;2167;53.448;9.984;2023-05-10T05:49:35;4.70;;;3.03;;
4307;SDS011;2167;53.448;9.984;2023-05-10T05:52:01;8.03;;;3.37;;
4307;SDS011;2167;53.448;9.984;2023-05-10T05:54:28;9.40;;;3.23;;
4307;SDS011;2167;53.448;9.984;2023-05-10T05:56:55;4.70;;;3.30;;
4307;SDS011;2167;53.448;9.984;2023-05-10T05:59:21;3.70;;;3.37;;
4307;SDS011;2167;53.448;9.984;2023-05-10T06:01:47;4.57;;;3.90;;
4307;SDS011;2167;53.448;9.984;2023-05-10T06:04:14;7.90;;;3.50;;
4307;SDS011;2167;53.448;9.984;2023-05-10T06:06:40;6.00;;;3.30;;
4307;SDS011;2167;53.448;9.984;2023-05-10T06:09:06;3.40;;;3.10;;
4307;SDS011;2167;53.448;9.984;2023-05-10T06:11:31;4.13;;;2.80;;
4307;SDS011;2167;53.448;9.984;2023-05-10T06:13:57;7.63;;;4.17;;
4307;SDS011;2167;53.448;9.984;2023-05-10T06:16:23;7.03;;;3.20;;
4307;SDS011;2167;53.448;9.984;2023-05-10T06:18:48;3.60;;;3.30;;
4307;SDS011;2167;53.448;9.984;2023-05-10T06:21:14;4.77;;;3.13;;
4307;SDS011;2167;53.448;9.984;2023-05-10T06:23:43;5.90;;;3.50;;
4307;SDS011;2167;53.448;9.984;2023-05-10T06:26:09;5.40;;;3.53;;
4307;SDS011;2167;53.448;9.984;2023-05-10T06:28:34;3.13;;;2.73;;
4307;SDS011;2167;53.448;9.984;2023-05-10T06:31:02;3.93;;;3.23;;
4307;SDS011;2167;53.448;9.984;2023-05-10T06:33:28;5.60;;;3.73;;
4307;SDS011;2167;53.448;9.984;2023-05-10T06:35:54;5.60;;;3.23;;
4307;SDS011;2167;53.448;9.984;2023-05-10T06:38:19;12.33;;;3.70;;
4307;SDS011;2167;53.448;9.984;2023-05-10T06:40:45;3.50;;;3.10;;
4307;SDS011;2167;53.448;9.984;2023-05-10T06:43:10;4.93;;;3.07;;
4307;SDS011;2167;53.448;9.984;2023-05-10T06:45:36;2.80;;;2.60;;
4307;SDS011;2167;53.448;9.984;2023-05-10T06:48:02;8.53;;;3.03;;
4307;SDS011;2167;53.448;9.984;2023-05-10T06:50:27;3.93;;;3.63;;
4307;SDS011;2167;53.448;9.984;2023-05-10T06:52:53;3.90;;;2.97;;
4307;SDS011;2167;53.448;9.984;2023-05-10T06:55:20;2.70;;;2.30;;
4307;SDS011;2167;53.448;9.984;2023-05-10T06:57:48;3.47;;;3.03;;
4307;SDS011;2167;53.448;9.984;2023-05-10T07:00:15;3.60;;;2.40;;
4307;SDS011;2167;53.448;9.984;2023-05-10T07:02:41;3.33;;;3.00;;
4307;SDS011;2167;53.448;9.984;2023-05-10T07:05:07;2.83;;;2.63;;
4307;SDS011;2167;53.448;9.984;2023-05-10T07:07:33;3.37;;;2.87;;
4307;SDS011;2167;53.448;9.984;2023-05-10T07:09:59;4.13;;;3.10;;
4307;SDS011;2167;53.448;9.984;2023-05-10T07:12:25;8.67;;;4.27;;
4307;SDS011;2167;53.448;9.984;2023-05-10T07:14:51;3.93;;;2.90;;
4307;SDS011;2167;53.448;9.984;2023-05-10T07:17:16;4.20;;;3.63;;
4307;SDS011;2167;53.448;9.984;2023-05-10T07:19:42;4.53;;;3.80;;
4307;SDS011;2167;53.448;9.984;2023-05-10T07:22:08;5.77;;;2.83;;
4307;SDS011;2167;53.448;9.984;2023-05-10T07:24:34;3.73;;;3.20;;
4307;SDS011;2167;53.448;9.984;2023-05-10T07:26:59;4.33;;;3.70;;
4307;SDS011;2167;53.448;9.984;2023-05-10T07:29:25;4.33;;;3.23;;
4307;SDS011;2167;53.448;9.984;2023-05-10T07:31:51;4.23;;;2.90;;
4307;SDS011;2167;53.448;9.984;2023-05-10T07:34:17;5.43;;;3.10;;
4307;SDS011;2167;53.448;9.984;2023-05-10T07:36:43;6.70;;;3.50;;
4307;SDS011;2167;53.448;9.984;2023-05-10T07:39:08;3.50;;;3.20;;
4307;SDS011;2167;53.448;9.984;2023-05-10T07:41:34;4.37;;;3.07;;
4307;SDS011;2167;53.448;9.984;2023-05-10T07:44:02;5.53;;;3.20;;
4307;SDS011;2167;53.448;9.984;2023-05-10T07:46:28;3.77;;;2.90;;
4307;SDS011;2167;53.448;9.984;2023-05-10T07:48:54;3.10;;;2.67;;
4307;SDS011;2167;53.448;9.984;2023-05-10T07:51:19;3.67;;;2.83;;
4307;SDS011;2167;53.448;9.984;2023-05-10T07:53:45;3.80;;;2.70;;
4307;SDS011;2167;53.448;9.984;2023-05-10T07:56:21;6.53;;;4.07;;
4307;SDS011;2167;53.448;9.984;2023-05-10T07:58:52;3.43;;;3.13;;
4307;SDS011;2167;53.448;9.984;2023-05-10T08:01:19;4.20;;;3.20;;
4307;SDS011;2167;53.448;9.984;2023-05-10T08:03:45;3.90;;;3.50;;
4307;SDS011;2167;53.448;9.984;2023-05-10T08:06:10;3.47;;;2.60;;
4307;SDS011;2167;53.448;9.984;2023-05-10T08:08:37;3.37;;;3.00;;
4307;SDS011;2167;53.448;9.984;2023-05-10T08:11:03;4.57;;;4.00;;
4307;SDS011;2167;53.448;9.984;2023-05-10T08:13:29;3.90;;;3.60;;
4307;SDS011;2167;53.448;9.984;2023-05-10T08:15:54;4.57;;;3.27;;
4307;SDS011;2167;53.448;9.984;2023-05-10T08:18:20;4.03;;;3.17;;
4307;SDS011;2167;53.448;9.984;2023-05-10T08:20:46;4.67;;;3.40;;
4307;SDS011;2167;53.448;9.984;2023-05-10T08:23:12;4.10;;;3.47;;
4307;SDS011;2167;53.448;9.984;2023-05-10T08:25:38;3.30;;;3.00;;
4307;SDS011;2167;53.448;9.984;2023-05-10T08:28:04;4.00;;;3.10;;
4307;SDS011;2167;53.448;9.984;2023-05-10T08:30:29;3.33;;;3.03;;
4307;SDS011;2167;53.448;9.984;2023-05-10T08:32:55;4.60;;;4.20;;
4307;SDS011;2167;53.448;9.984;2023-05-10T08:35:20;3.73;;;3.27;;
4307;SDS011;2167;53.448;9.984;2023-05-10T08:37:46;5.73;;;3.43;;
4307;SDS011;2167;53.448;9.984;2023-05-10T08:40:12;6.03;;;3.60;;
4307;SDS011;2167;53.448;9.984;2023-05-10T08:42:39;5.70;;;3.77;;
4307;SDS011;2167;53.448;9.984;2023-05-10T08:45:07;4.17;;;3.10;;
4307;SDS011;2167;53.448;9.984;2023-05-10T08:47:35;5.93;;;4.00;;
4307;SDS011;2167;53.448;9.984;2023-05-10T08:50:02;3.50;;;3.13;;
4307;SDS011;2167;53.448;9.984;2023-05-10T08:52:29;4.53;;;3.40;;
4307;SDS011;2167;53.448;9.984;2023-05-10T08:54:57;3.83;;;3.43;;
4307;SDS011;2167;53.448;9.984;2023-05-10T08:57:23;9.20;;;4.17;;
4307;SDS011;2167;53.448;9.984;2023-05-10T08:59:49;3.97;;;3.47;;
4307;SDS011;2167;53.448;9.984;2023-05-10T09:02:14;8.10;;;3.97;;
4307;SDS011;2167;53.448;9.984;2023-05-10T09:04:42;4.97;;;4.17;;
4307;SDS011;2167;53.448;9.984;2023-05-10T09:07:07;7.93;;;3.87;;
4307;SDS011;2167;53.448;9.984;2023-05-10T09:09:33;4.30;;;3.40;;
4307;SDS011;2167;53.448;9.984;2023-05-10T09:11:59;4.70;;;3.90;;
4307;SDS011;2167;53.448;9.984;2023-05-10T09:14:25;8.60;;;4.80;;
4307;SDS011;2167;53.448;9.984;2023-05-10T09:16:51;6.83;;;4.10;;
4307;SDS011;2167;53.448;9.984;2023-05-10T09:19:20;6.90;;;4.37;;
4307;SDS011;2167;53.448;9.984;2023-05-10T09:21:45;5.53;;;3.93;;
4307;SDS011;2167;53.448;9.984;2023-05-10T09:24:11;5.57;;;4.30;;
4307;SDS011;2167;53.448;9.984;2023-05-10T09:26:45;4.97;;;3.67;;
4307;SDS011;2167;53.448;9.984;2023-05-10T09:29:15;8.10;;;4.00;;
4307;SDS011;2167;53.448;9.984;2023-05-10T09:34:11;7.43;;;5.10;;
4307;SDS011;2167;53.448;9.984;2023-05-10T09:36:55;6.90;;;3.90;;
4307;SDS011;2167;53.448;9.984;2023-05-10T09:39:32;5.50;;;4.03;;
4307;SDS011;2167;53.448;9.984;2023-05-10T09:41:59;6.80;;;4.47;;
4307;SDS011;2167;53.448;9.984;2023-05-10T09:44:28;6.10;;;5.03;;
4307;SDS011;2167;53.448;9.984;2023-05-10T09:46:55;4.50;;;3.80;;
4307;SDS011;2167;53.448;9.984;2023-05-10T09:49:21;5.43;;;3.60;;
4307;SDS011;2167;53.448;9.984;2023-05-10T09:51:47;9.53;;;4.00;;
4307;SDS011;2167;53.448;9.984;2023-05-10T09:54:13;6.00;;;4.00;;
4307;SDS011;2167;53.448;9.984;2023-05-10T09:56:40;6.53;;;3.67;;
4307;SDS011;2167;53.448;9.984;2023-05-10T09:59:10;10.43;;;4.37;;
4307;SDS011;2167;53.448;9.984;2023-05-10T10:01:36;5.60;;;4.63;;
4307;SDS011;2167;53.448;9.984;2023-05-10T10:04:07;5.20;;;4.50;;
4307;SDS011;2167;53.448;9.984;2023-05-10T10:06:38;6.60;;;4.80;;
4307;SDS011;2167;53.448;9.984;2023-05-10T10:09:04;10.33;;;5.13;;
4307;SDS011;2167;53.448;9.984;2023-05-10T10:11:31;7.13;;;4.90;;
4307;SDS011;2167;53.448;9.984;2023-05-10T10:13:58;7.50;;;4.27;;
4307;SDS011;2167;53.448;9.984;2023-05-10T10:16:24;5.27;;;4.33;;
4307;SDS011;2167;53.448;9.984;2023-05-10T10:18:51;6.03;;;4.40;;
4307;SDS011;2167;53.448;9.984;2023-05-10T10:21:16;6.17;;;4.53;;
4307;SDS011;2167;53.448;9.984;2023-05-10T10:23:42;6.40;;;5.70;;
4307;SDS011;2167;53.448;9.984;2023-05-10T10:26:08;6.90;;;5.57;;
4307;SDS011;2167;53.448;9.984;2023-05-10T10:28:38;6.50;;;4.87;;
4307;SDS011;2167;53.448;9.984;2023-05-10T10:31:53;10.83;;;5.73;;
4307;SDS011;2167;53.448;9.984;2023-05-10T10:34:08;10.53;;;4.80;;
4307;SDS011;2167;53.448;9.984;2023-05-10T10:36:40;5.67;;;4.30;;
4307;SDS011;2167;53.448;9.984;2023-05-10T10:39:11;7.50;;;5.03;;
4307;SDS011;2167;53.448;9.984;2023-05-10T10:41:38;5.27;;;4.77;;
4307;SDS011;2167;53.448;9.984;2023-05-10T10:46:59;7.50;;;5.47;;
4307;SDS011;2167;53.448;9.984;2023-05-10T10:49:43;5.97;;;5.10;;
4307;SDS011;2167;53.448;9.984;2023-05-10T10:52:25;7.20;;;5.53;;
4307;SDS011;2167;53.448;9.984;2023-05-10T10:55:08;7.50;;;5.23;;
4307;SDS011;2167;53.448;9.984;2023-05-10T10:57:49;8.20;;;6.07;;
4307;SDS011;2167;53.448;9.984;2023-05-10T11:03:04;10.80;;;7.27;;
4307;SDS011;2167;53.448;9.984;2023-05-10T11:10:48;11.33;;;6.00;;
4307;SDS011;2167;53.448;9.984;2023-05-10T11:13:17;14.40;;;7.73;;
4307;SDS011;2167;53.448;9.984;2023-05-10T11:15:54;15.40;;;6.47;;
4307;SDS011;2167;53.448;9.984;2023-05-10T11:18:28;6.43;;;5.80;;
4307;SDS011;2167;53.448;9.984;2023-05-10T11:21:01;7.40;;;5.67;;
4307;SDS011;2167;53.448;9.984;2023-05-10T11:23:47;8.27;;;5.40;;
4307;SDS011;2167;53.448;9.984;2023-05-10T11:26:16;7.50;;;5.70;;
4307;SDS011;2167;53.448;9.984;2023-05-10T11:28:45;12.83;;;6.87;;
4307;SDS011;2167;53.448;9.984;2023-05-10T11:31:19;11.27;;;5.50;;
4307;SDS011;2167;53.448;9.984;2023-05-10T11:33:46;10.37;;;5.20;;
4307;SDS011;2167;53.448;9.984;2023-05-10T11:36:16;7.27;;;4.83;;
4307;SDS011;2167;53.448;9.984;2023-05-10T11:38:44;13.90;;;6.40;;
4307;SDS011;2167;53.448;9.984;2023-05-10T11:41:11;10.03;;;5.87;;
4307;SDS011;2167;53.448;9.984;2023-05-10T11:43:41;8.43;;;5.67;;
4307;SDS011;2167;53.448;9.984;2023-05-10T11:46:07;8.00;;;5.70;;
4307;SDS011;2167;53.448;9.984;2023-05-10T11:48:35;8.63;;;6.00;;
4307;SDS011;2167;53.448;9.984;2023-05-10T11:51:01;8.00;;;5.80;;
4307;SDS011;2167;53.448;9.984;2023-05-10T11:53:29;8.30;;;5.50;;
4307;SDS011;2167;53.448;9.984;2023-05-10T11:56:02;7.17;;;5.03;;
4307;SDS011;2167;53.448;9.984;2023-05-10T11:58:29;6.03;;;4.77;;
4307;SDS011;2167;53.448;9.984;2023-05-10T12:00:55;5.57;;;4.87;;
4307;SDS011;2167;53.448;9.984;2023-05-10T12:03:21;6.53;;;4.90;;
4307;SDS011;2167;53.448;9.984;2023-05-10T12:05:47;7.30;;;4.80;;
4307;SDS011;2167;53.448;9.984;2023-05-10T12:08:13;6.23;;;5.17;;
4307;SDS011;2167;53.448;9.984;2023-05-10T12:10:39;5.10;;;3.90;;
4307;SDS011;2167;53.448;9.984;2023-05-10T12:13:05;4.50;;;4.10;;
4307;SDS011;2167;53.448;9.984;2023-05-10T12:15:37;5.10;;;4.60;;
4307;SDS011;2167;53.448;9.984;2023-05-10T12:18:02;5.80;;;4.23;;
4307;SDS011;2167;53.448;9.984;2023-05-10T12:20:28;4.67;;;3.90;;
4307;SDS011;2167;53.448;9.984;2023-05-10T12:22:55;7.27;;;4.47;;
4307;SDS011;2167;53.448;9.984;2023-05-10T12:25:23;5.27;;;3.83;;
4307;SDS011;2167;53.448;9.984;2023-05-10T12:27:54;7.57;;;4.90;;
4307;SDS011;2167;53.448;9.984;2023-05-10T12:30:25;8.47;;;4.80;;
4307;SDS011;2167;53.448;9.984;2023-05-10T12:32:52;7.80;;;5.10;;
4307;SDS011;2167;53.448;9.984;2023-05-10T12:35:19;7.40;;;4.67;;
4307;SDS011;2167;53.448;9.984;2023-05-10T12:37:47;8.20;;;5.50;;
4307;SDS011;2167;53.448;9.984;2023-05-10T12:40:12;7.17;;;5.47;;
4307;SDS011;2167;53.448;9.984;2023-05-10T12:42:39;5.73;;;4.07;;
4307;SDS011;2167;53.448;9.984;2023-05-10T12:45:05;5.20;;;4.40;;
4307;SDS011;2167;53.448;9.984;2023-05-10T12:47:31;7.27;;;4.90;;
4307;SDS011;2167;53.448;9.984;2023-05-10T12:49:57;6.97;;;4.70;;
4307;SDS011;2167;53.448;9.984;2023-05-10T12:52:24;6.33;;;5.17;;
4307;SDS011;2167;53.448;9.984;2023-05-10T12:54:51;4.73;;;3.90;;
4307;SDS011;2167;53.448;9.984;2023-05-10T12:57:17;5.37;;;4.30;;
4307;SDS011;2167;53.448;9.984;2023-05-10T12:59:44;6.37;;;4.77;;
4307;SDS011;2167;53.448;9.984;2023-05-10T13:02:10;5.67;;;4.30;;
4307;SDS011;2167;53.448;9.984;2023-05-10T13:04:35;5.90;;;4.23;;
4307;SDS011;2167;53.448;9.984;2023-05-10T13:07:05;7.40;;;4.90;;
4307;SDS011;2167;53.448;9.984;2023-05-10T13:09:31;6.93;;;4.70;;
4307;SDS011;2167;53.448;9.984;2023-05-10T13:11:56;6.47;;;5.33;;
4307;SDS011;2167;53.448;9.984;2023-05-10T13:14:22;8.17;;;5.20;;
4307;SDS011;2167;53.448;9.984;2023-05-10T13:16:48;7.53;;;4.93;;
4307;SDS011;2167;53.448;9.984;2023-05-10T13:19:14;7.60;;;5.00;;
4307;SDS011;2167;53.448;9.984;2023-05-10T13:21:40;7.80;;;5.13;;
4307;SDS011;2167;53.448;9.984;2023-05-10T13:24:06;5.63;;;5.07;;
4307;SDS011;2167;53.448;9.984;2023-05-10T13:26:32;5.70;;;5.10;;
4307;SDS011;2167;53.448;9.984;2023-05-10T13:28:58;6.37;;;4.57;;
4307;SDS011;2167;53.448;9.984;2023-05-10T13:31:24;12.93;;;6.23;;
4307;SDS011;2167;53.448;9.984;2023-05-10T13:33:50;6.57;;;5.27;;
4307;SDS011;2167;53.448;9.984;2023-05-10T13:36:15;5.37;;;4.53;;
4307;SDS011;2167;53.448;9.984;2023-05-10T13:38:41;5.90;;;5.20;;
4307;SDS011;2167;53.448;9.984;2023-05-10T13:41:06;7.50;;;5.70;;
4307;SDS011;2167;53.448;9.984;2023-05-10T13:43:32;7.50;;;4.57;;
4307;SDS011;2167;53.448;9.984;2023-05-10T13:45:58;5.97;;;4.10;;
4307;SDS011;2167;53.448;9.984;2023-05-10T13:48:23;6.67;;;5.27;;
4307;SDS011;2167;53.448;9.984;2023-05-10T13:50:49;5.77;;;5.00;;
4307;SDS011;2167;53.448;9.984;2023-05-10T13:53:14;6.50;;;5.00;;
4307;SDS011;2167;53.448;9.984;2023-05-10T13:59:02;9.10;;;5.10;;
4307;SDS011;2167;53.448;9.984;2023-05-10T14:01:27;4.80;;;4.33;;
4307;SDS011;2167;53.448;9.984;2023-05-10T14:03:53;4.90;;;4.40;;
4307;SDS011;2167;53.448;9.984;2023-05-10T14:06:18;6.23;;;4.40;;
4307;SDS011;2167;53.448;9.984;2023-05-10T14:08:44;4.90;;;4.20;;
4307;SDS011;2167;53.448;9.984;2023-05-10T14:11:10;6.30;;;4.50;;
4307;SDS011;2167;53.448;9.984;2023-05-10T14:13:36;6.47;;;5.43;;
4307;SDS011;2167;53.448;9.984;2023-05-10T14:16:02;7.50;;;4.33;;
4307;SDS011;2167;53.448;9.984;2023-05-10T14:18:28;5.27;;;4.20;;
4307;SDS011;2167;53.448;9.984;2023-05-10T14:20:53;6.33;;;4.73;;
4307;SDS011;2167;53.448;9.984;2023-05-10T14:23:20;4.83;;;4.33;;
4307;SDS011;2167;53.448;9.984;2023-05-10T14:25:49;4.13;;;3.70;;
4307;SDS011;2167;53.448;9.984;2023-05-10T14:28:17;6.40;;;4.13;;
4307;SDS011;2167;53.448;9.984;2023-05-10T14:30:43;4.43;;;3.90;;
4307;SDS011;2167;53.448;9.984;2023-05-10T14:33:09;5.00;;;4.23;;
4307;SDS011;2167;53.448;9.984;2023-05-10T14:35:35;4.40;;;3.97;;
4307;SDS011;2167;53.448;9.984;2023-05-10T14:38:01;5.17;;;4.13;;
4307;SDS011;2167;53.448;9.984;2023-05-10T14:40:29;6.60;;;4.70;;
4307;SDS011;2167;53.448;9.984;2023-05-10T14:42:54;5.20;;;4.23;;
4307;SDS011;2167;53.448;9.984;2023-05-10T14:45:21;10.30;;;4.23;;
4307;SDS011;2167;53.448;9.984;2023-05-10T14:47:48;5.37;;;4.00;;
4307;SDS011;2167;53.448;9.984;2023-05-10T14:50:14;4.30;;;3.80;;
4307;SDS011;2167;53.448;9.984;2023-05-10T14:52:41;3.53;;;3.00;;
4307;SDS011;2167;53.448;9.984;2023-05-10T14:55:07;5.70;;;3.83;;
4307;SDS011;2167;53.448;9.984;2023-05-10T14:57:33;4.43;;;4.03;;
4307;SDS011;2167;53.448;9.984;2023-05-10T14:59:59;4.23;;;3.60;;
4307;SDS011;2167;53.448;9.984;2023-05-10T15:02:25;5.97;;;4.10;;
4307;SDS011;2167;53.448;9.984;2023-05-10T15:04:50;5.50;;;4.30;;
4307;SDS011;2167;53.448;9.984;2023-05-10T15:07:16;5.63;;;4.00;;
4307;SDS011;2167;53.448;9.984;2023-05-10T15:09:43;4.70;;;3.10;;
4307;SDS011;2167;53.448;9.984;2023-05-10T15:12:09;5.83;;;4.00;;
4307;SDS011;2167;53.448;9.984;2023-05-10T15:14:34;4.80;;;3.40;;
4307;SDS011;2167;53.448;9.984;2023-05-10T15:17:01;6.40;;;3.50;;
4307;SDS011;2167;53.448;9.984;2023-05-10T15:19:27;3.80;;;2.77;;
4307;SDS011;2167;53.448;9.984;2023-05-10T15:21:54;3.37;;;3.00;;
4307;SDS011;2167;53.448;9.984;2023-05-10T15:24:20;3.67;;;3.37;;
4307;SDS011;2167;53.448;9.984;2023-05-10T15:26:46;5.73;;;3.87;;
4307;SDS011;2167;53.448;9.984;2023-05-10T15:29:12;4.90;;;3.40;;
4307;SDS011;2167;53.448;9.984;2023-05-10T15:31:44;5.80;;;3.90;;
4307;SDS011;2167;53.448;9.984;2023-05-10T15:34:10;4.90;;;3.63;;
4307;SDS011;2167;53.448;9.984;2023-05-10T15:36:36;7.57;;;4.40;;
4307;SDS011;2167;53.448;9.984;2023-05-10T15:39:02;5.10;;;4.57;;
4307;SDS011;2167;53.448;9.984;2023-05-10T15:41:28;8.67;;;4.53;;
4307;SDS011;2167;53.448;9.984;2023-05-10T15:43:54;3.53;;;3.23;;
4307;SDS011;2167;53.448;9.984;2023-05-10T15:46:20;6.00;;;4.37;;
4307;SDS011;2167;53.448;9.984;2023-05-10T15:48:46;7.53;;;4.13;;
4307;SDS011;2167;53.448;9.984;2023-05-10T15:51:11;5.67;;;4.20;;